Flight Track Log - Related Links

Times and Time Zones

All times are in EDT time to prevent confusion due to time zone crossing. See the ASH3797 flight status page for this flight to view local times or setup timezone preferences in your user account.


Time Position Orientation Groundspeed Altitude Reporting Facility
EDT Latitude Longitude Course Direction KTS MPH feet Rate Location/Type
Sun 08:03:05 PM 39.8833 -75.2167 90° East 154 177 800  Level Philadelphia TRACON
Sun 08:03:35 PM 39.8833 -75.2000 90° East 168 193 1,800 2,000 Climbing Philadelphia TRACON
Sun 08:04:35 PM 39.9167 -75.1333 57° Northeast 247 284 3,800 2,231 Climbing Philadelphia TRACON
Sun 08:05:36 PM 39.9833 -75.1333 360° North 290 334 6,300 2,682 Climbing Philadelphia TRACON
Sun 08:06:47 PM 40.0833 -75.1833 339° North 297 342 9,700 1,664 Climbing Philadelphia TRACON
Sun 08:07:53 PM 40.1333 -75.3000 299° West 388 447 10,100 772 Climbing Philadelphia TRACON
Sun 08:08:28 PM 40.1489 -75.3711 286° West 424 488 11,000 1,875 Climbing New York Center
Sun 08:09:29 PM 40.1942 -75.4936 296° West 396 456 13,100 1,388 Climbing New York Center
Sun 08:10:29 PM 40.2561 -75.6094 305° West 390 449 13,800 1,350 Climbing New York Center
Sun 08:11:29 PM 40.3267 -75.7150 311° West 390 449 15,800 1,686 Climbing New York Center
Sun 08:12:30 PM 40.3933 -75.8153 311° West 395 455 17,200 1,736 Climbing New York Center
Sun 08:13:30 PM 40.4467 -75.9336 301° West 400 460 19,300 1,835 Climbing New York Center
Sun 08:14:31 PM 40.4694 -76.0744 282° West 379 436 20,900 1,424 Climbing New York Center
Sun 08:15:28 PM 40.4903 -76.2153 281° West 390 449 22,100 1,424 Climbing New York Center
Sun 08:16:29 PM 40.5147 -76.3592 283° West 396 456 23,700 1,488 Climbing New York Center
Sun 08:17:29 PM 40.5350 -76.5031 281° West 396 456 25,100 1,250 Climbing New York Center
Sun 08:18:29 PM 40.5550 -76.6439 281° West 396 456 26,200 1,091 Climbing New York Center
Sun 08:19:30 PM 40.5686 -76.7928 277° West 401 461 27,300 1,462 Climbing New York Center
Sun 08:20:28 PM 40.5819 -76.9386 277° West 401 461 29,100 1,424 Climbing New York Center
Sun 08:21:28 PM 40.5953 -77.0794 277° West 401 461 30,100 1,289 Climbing New York Center
Sun 08:22:29 PM 40.6067 -77.2144 276° West 391 450 31,700 1,438 Climbing New York Center
Sun 08:23:29 PM 40.6203 -77.3469 278° West 386 444 33,000 1,488 Climbing New York Center
Sun 08:24:30 PM 40.6300 -77.4711 276° West 368 423 34,700 1,043 Climbing New York Center
Sun 08:26:33 PM 40.6508 -77.7422 276° West 344 396 36,200 787 Climbing Cleveland Center
Sun 08:27:33 PM 40.6644 -77.8678 278° West 344 396 37,100 800 Climbing Cleveland Center
Sun 08:28:33 PM 40.6819 -77.9903 281° West 349 402 37,800 450 Climbing Cleveland Center
Sun 08:29:33 PM 40.6992 -78.1156 280° West 349 402 38,000 100 Climbing Cleveland Center
Sun 08:30:33 PM 40.7164 -78.2408 280° West 354 407 38,000  Level Cleveland Center
Sun 08:31:33 PM 40.7336 -78.3744 280° West 360 414 38,000  Level Cleveland Center
Sun 08:32:33 PM 40.7531 -78.5108 281° West 372 428 38,000  Level Cleveland Center
Sun 08:33:33 PM 40.7700 -78.6503 279° West 382 440 38,000  Level Cleveland Center
Sun 08:34:33 PM 40.7889 -78.7842 281° West 382 440 38,000  Level Cleveland Center
Sun 08:35:33 PM 40.8053 -78.9044 280° West 382 440 38,000  Level Cleveland Center
Sun 08:36:33 PM 40.8239 -79.0356 281° West 372 428 38,000  Level Cleveland Center
Sun 08:37:33 PM 40.8444 -79.1722 281° West 372 428 38,000  Level Cleveland Center
Sun 08:38:33 PM 40.8606 -79.3175 278° West 383 441 38,000  Level Cleveland Center
Sun 08:39:33 PM 40.8789 -79.4600 280° West 393 452 38,000  Level Cleveland Center
Sun 08:40:33 PM 40.8989 -79.6025 281° West 393 452 38,000  Level Cleveland Center
Sun 08:41:34 PM 40.9147 -79.7478 278° West 398 458 38,000  Level Cleveland Center
Sun 08:42:33 PM 40.9322 -79.8933 279° West 403 464 38,000  Level Cleveland Center
Sun 08:43:33 PM 40.9497 -80.0389 279° West 408 470 38,000  Level Cleveland Center
Sun 08:44:33 PM 40.9669 -80.1844 279° West 408 470 38,000  Level Cleveland Center
Sun 08:45:33 PM 40.9861 -80.3300 280° West 408 470 38,000  Level Cleveland Center
Sun 08:46:33 PM 41.0031 -80.4758 279° West 408 470 38,000  Level Cleveland Center
Sun 08:47:33 PM 41.0197 -80.6244 279° West 408 470 38,000  Level Cleveland Center
Sun 08:48:33 PM 41.0364 -80.7675 279° West 408 470 38,000  Level Cleveland Center
Sun 08:49:33 PM 41.0528 -80.9136 279° West 408 470 38,000  Level Cleveland Center
Sun 08:50:33 PM 41.0606 -81.0789 274° West 408 470 38,000  Level Cleveland Center
Sun 08:51:33 PM 41.0681 -81.2247 274° West 403 464 38,000  Level Cleveland Center
Sun 08:52:33 PM 41.0756 -81.3597 274° West 403 464 38,000  Level Cleveland Center
Sun 08:53:33 PM 41.0850 -81.5086 275° West 403 464 38,000  Level Cleveland Center
Sun 08:54:33 PM 41.0939 -81.6603 274° West 408 470 38,000  Level Cleveland Center
Sun 08:55:33 PM 41.1028 -81.8258 274° West 408 470 38,000  Level Cleveland Center
Sun 08:56:33 PM 41.1114 -81.9747 274° West 408 470 38,000  Level Cleveland Center
Sun 08:57:33 PM 41.1219 -82.1267 275° West 408 470 38,000  Level Cleveland Center
Sun 08:58:33 PM 41.1303 -82.2758 274° West 413 475 38,000  Level Cleveland Center
Sun 08:59:33 PM 41.1383 -82.4275 274° West 408 470 38,000  Level Cleveland Center
Sun 09:00:33 PM 41.1461 -82.5767 274° West 408 470 38,000  Level Cleveland Center
Sun 09:01:33 PM 41.1539 -82.7286 274° West 408 470 38,000  Level Cleveland Center
Sun 09:02:33 PM 41.1592 -82.8806 273° West 413 475 38,000  Level Cleveland Center
Sun 09:03:33 PM 41.1669 -83.0161 274° West 418 481 38,000  Level Cleveland Center
Sun 09:04:33 PM 41.1736 -83.1844 273° West 418 481 38,000  Level Cleveland Center
Sun 09:05:33 PM 41.1806 -83.3367 274° West 418 481 38,000  Level Cleveland Center
Sun 09:06:33 PM 41.1892 -83.4942 274° West 425 489 38,000  Level Cleveland Center
Sun 09:07:33 PM 41.1975 -83.6492 274° West 425 489 38,000  Level Cleveland Center
Sun 09:08:33 PM 41.2014 -83.8067 272° West 425 489 38,000  Level Cleveland Center
Sun 09:09:33 PM 41.2117 -83.9619 275° West 425 489 38,000 -250 Level Cleveland Center
Sun 09:10:33 PM 41.2194 -84.1169 274° West 425 489 37,500 -640 Descending Cleveland Center
Sun 09:10:48 PM 41.2200 -84.1394 272° West 428 493 37,200 -1,403 Descending Chicago Center
Sun 09:11:50 PM 41.2250 -84.2969 272° West 427 491 35,700 -1,210 Descending Chicago Center
Sun 09:12:52 PM 41.2292 -84.4553 272° West 427 491 34,700 -829 Descending Chicago Center
Sun 09:13:53 PM 41.2342 -84.6461 272° West 431 496 34,000 -341 Descending Chicago Center
Sun 09:14:55 PM 41.2400 -84.8078 273° West 436 502 34,000  Level Chicago Center
Sun 09:15:57 PM 41.2467 -84.9731 273° West 445 512 34,000  Level Chicago Center
Sun 09:16:59 PM 41.2525 -85.1392 273° West 448 516 34,000  Level Chicago Center
Sun 09:18:01 PM 41.2586 -85.3061 273° West 449 517 34,000 -242 Level Chicago Center
Sun 09:19:03 PM 41.2647 -85.4764 273° West 455 524 33,500 -1,210 Descending Chicago Center
Sun 09:20:05 PM 41.2703 -85.6472 273° West 458 527 31,500 -2,903 Descending Chicago Center
Sun 09:21:07 PM 41.2756 -85.8092 273° West 440 506 27,500 -3,145 Descending Chicago Center
Sun 09:22:09 PM 41.2822 -85.9942 273° West 417 480 25,000 -1,210 Descending Chicago Center
Sun 09:23:11 PM 41.3111 -86.1464 284° West 422 486 25,000 -435 Level Chicago Center
Sun 09:24:13 PM 41.3500 -86.3008 289° West 438 504 24,100 -1,403 Descending Chicago Center
Sun 09:25:15 PM 41.3883 -86.4544 288° West 436 502 22,100 -1,951 Descending Chicago Center
Sun 09:26:16 PM 41.4247 -86.6000 288° West 417 480 20,100 -2,098 Descending Chicago Center
Sun 09:27:18 PM 41.4628 -86.7528 288° West 391 450 17,800 -2,081 Descending Chicago Center
Sun 09:28:20 PM 41.4944 -86.8819 288° West 373 429 15,800 -1,935 Descending Chicago Center
Sun 09:29:22 PM 41.5261 -87.0094 288° West 366 421 13,800 -1,839 Descending Chicago Center
Sun 09:30:24 PM 41.5558 -87.1344 288° West 356 410 12,000 -871 Descending Chicago Center
Sun 09:31:26 PM 41.5878 -87.2531 290° West 345 397 12,000  Level Chicago Center
Sun 09:32:28 PM 41.6606 -87.3714 309° West 343 395 12,000 -293 Level Chicago Center
Sun 09:33:29 PM 41.7169 -87.4650 309° West 328 377 11,400 -1,122 Descending Chicago Center
Sun 09:34:31 PM 41.7681 -87.5458 310° West 293 337 9,700 -1,820 Descending Chicago Center
Sun 09:35:31 PM 41.8167 -87.6333 307° West 273 314 7,700 -1,286 Descending Chicago TRACON
Sun 09:36:37 PM 41.8833 -87.7167 317° Northwest 280 322 7,000 -333 Descending Chicago TRACON
Sun 09:37:37 PM 41.9500 -87.7167 360° North 231 266 7,000 -100 Level Chicago TRACON
Sun 09:38:37 PM 42.0000 -87.7167 360° North 192 221 6,800 -835 Descending Chicago TRACON
Sun 09:39:32 PM 42.0500 -87.7000 14° North 193 222 5,400 -1,587 Descending Chicago TRACON
Sun 09:40:38 PM 42.0833 -87.7500 312° West 180 207 3,600 -1,524 Descending Chicago TRACON
Sun 09:41:38 PM 42.0667 -87.8167 251° West 182 209 2,200 -900 Descending Chicago TRACON
Sun 09:42:38 PM 42.0333 -87.8500 217° Southwest 139 160 1,800 -550 Descending Chicago TRACON
Sun 09:43:38 PM 42.0167 -87.8833 236° Southwest 135 155 1,100 -700 Descending Chicago TRACON
Sun 09:45:00 PM 41.9817 -87.9067 304° West  Level Estimated

Login

Don't have an account? Register now (free) for customized features, flight alerts, and more!